createdAt,value
2018-09-30T00:00:47.596Z,9.30
2018-09-30T00:03:15.072Z,9.20
2018-09-30T00:05:42.505Z,9.20
2018-09-30T00:08:10.112Z,9.30
2018-09-30T00:10:37.601Z,9.30
2018-09-30T00:13:05.126Z,9.20
2018-09-30T00:15:32.712Z,9.30
2018-09-30T00:18:00.154Z,9.30
2018-09-30T00:20:27.633Z,9.30
2018-09-30T00:22:55.133Z,9.30
2018-09-30T00:25:28.446Z,9.20
2018-09-30T00:27:55.962Z,9.10
2018-09-30T00:30:23.468Z,9.20
2018-09-30T00:32:51.017Z,9.10
2018-09-30T00:35:18.482Z,9.00
2018-09-30T00:37:45.931Z,9.00
2018-09-30T00:40:13.476Z,9.00
2018-09-30T00:42:41.015Z,9.10
2018-09-30T00:45:08.517Z,9.10
2018-09-30T00:47:36.004Z,9.10
2018-09-30T00:50:03.575Z,9.00
2018-09-30T00:52:31.065Z,9.00
2018-09-30T00:54:58.501Z,9.00
2018-09-30T00:57:25.989Z,8.90
2018-09-30T00:59:53.490Z,9.00
2018-09-30T01:02:20.945Z,8.90
2018-09-30T01:04:48.510Z,8.90
2018-09-30T01:07:15.976Z,8.90
2018-09-30T01:09:43.442Z,8.90
2018-09-30T01:12:10.929Z,8.90
2018-09-30T01:14:38.404Z,8.90
2018-09-30T01:17:05.912Z,8.90
2018-09-30T01:19:33.439Z,8.90
2018-09-30T01:22:00.960Z,8.80
2018-09-30T01:24:28.467Z,8.80
2018-09-30T01:26:56.022Z,8.70
2018-09-30T01:29:23.506Z,8.70
2018-09-30T01:31:50.942Z,8.70
2018-09-30T01:34:18.461Z,8.70
2018-09-30T01:36:45.982Z,8.70
2018-09-30T01:39:13.575Z,8.70
2018-09-30T01:41:41.120Z,8.70
2018-09-30T01:44:08.670Z,8.70
2018-09-30T01:46:36.324Z,8.70
2018-09-30T01:49:03.938Z,8.70
2018-09-30T01:51:31.509Z,8.70
2018-09-30T01:53:59.015Z,8.70
2018-09-30T01:56:26.449Z,8.70
2018-09-30T01:58:53.916Z,8.70
2018-09-30T02:01:21.390Z,8.80
2018-09-30T02:03:48.869Z,8.80
2018-09-30T02:06:16.445Z,8.70
2018-09-30T02:08:43.948Z,8.70
2018-09-30T02:11:11.509Z,8.80
2018-09-30T02:13:38.965Z,8.80
2018-09-30T02:16:06.480Z,8.80
2018-09-30T02:18:33.943Z,8.80
2018-09-30T02:21:01.346Z,8.80
2018-09-30T02:23:28.721Z,8.80
2018-09-30T02:25:56.134Z,8.80
2018-09-30T02:28:23.542Z,8.80
2018-09-30T02:30:51.038Z,8.90
2018-09-30T02:33:18.428Z,8.80
2018-09-30T02:35:45.943Z,8.80
2018-09-30T02:38:13.356Z,8.90
2018-09-30T02:40:40.755Z,8.90
2018-09-30T02:43:08.177Z,8.80
2018-09-30T02:45:35.600Z,8.80
2018-09-30T02:48:03.070Z,8.80
2018-09-30T02:50:30.502Z,8.80
2018-09-30T02:52:57.971Z,8.80
2018-09-30T02:55:25.409Z,8.80
2018-09-30T02:57:52.802Z,8.90
2018-09-30T03:00:20.256Z,9.00
2018-09-30T03:02:47.667Z,8.90
2018-09-30T03:05:15.102Z,8.90
2018-09-30T03:07:48.275Z,8.90
2018-09-30T03:10:15.672Z,8.90
2018-09-30T03:12:43.146Z,8.80
2018-09-30T03:15:10.528Z,8.80
2018-09-30T03:17:37.920Z,8.90
2018-09-30T03:20:05.365Z,9.00
2018-09-30T03:22:32.789Z,9.00
2018-09-30T03:25:00.216Z,9.00
2018-09-30T03:27:27.682Z,9.00
2018-09-30T03:29:55.070Z,9.10
2018-09-30T03:32:22.508Z,9.10
2018-09-30T03:34:49.913Z,9.10
2018-09-30T03:37:17.327Z,9.00
2018-09-30T03:39:44.780Z,9.00
2018-09-30T03:42:12.215Z,9.00
2018-09-30T03:44:39.765Z,9.00
2018-09-30T03:47:07.207Z,9.10
2018-09-30T03:49:34.622Z,9.10
2018-09-30T03:52:02.058Z,9.10
2018-09-30T03:54:29.485Z,9.00
2018-09-30T03:56:56.919Z,9.00
2018-09-30T03:59:24.389Z,9.00
2018-09-30T04:01:51.829Z,9.00
2018-09-30T04:04:19.249Z,9.00
2018-09-30T04:06:46.635Z,9.10
2018-09-30T04:09:14.084Z,9.10
2018-09-30T04:11:41.498Z,9.10
2018-09-30T04:14:09.043Z,9.20
2018-09-30T04:16:36.512Z,9.10
2018-09-30T04:19:03.952Z,9.20
2018-09-30T04:21:31.322Z,9.20
2018-09-30T04:24:07.360Z,9.10
2018-09-30T04:26:35.097Z,9.20
2018-09-30T04:29:02.700Z,9.20
2018-09-30T04:31:30.191Z,9.20
2018-09-30T04:33:57.618Z,9.20
2018-09-30T04:36:25.051Z,9.10
2018-09-30T04:38:52.510Z,9.00
2018-09-30T04:41:19.901Z,9.00
2018-09-30T04:43:47.360Z,9.00
2018-09-30T04:46:14.747Z,9.00
2018-09-30T04:48:42.183Z,9.10
2018-09-30T04:51:09.652Z,9.10
2018-09-30T04:53:37.046Z,9.10
2018-09-30T04:56:04.520Z,9.00
2018-09-30T04:58:31.945Z,9.00
2018-09-30T05:00:59.372Z,9.10
2018-09-30T05:03:26.774Z,9.00
2018-09-30T05:05:54.270Z,9.00
2018-09-30T05:08:21.625Z,9.00
2018-09-30T05:10:49.056Z,8.90
2018-09-30T05:13:16.485Z,9.00
2018-09-30T05:15:43.880Z,9.00
2018-09-30T05:18:11.293Z,9.00
2018-09-30T05:20:38.733Z,9.00
2018-09-30T05:23:06.185Z,9.00
2018-09-30T05:25:33.609Z,9.10
2018-09-30T05:28:01.260Z,9.10
2018-09-30T05:30:29.597Z,9.20
2018-09-30T05:32:57.010Z,9.10
2018-09-30T05:35:24.428Z,9.20
2018-09-30T05:37:51.890Z,9.20
2018-09-30T05:40:19.323Z,9.10
2018-09-30T05:42:46.731Z,9.10
2018-09-30T05:45:14.185Z,9.10
2018-09-30T05:47:41.641Z,9.10
2018-09-30T05:50:09.046Z,9.10
2018-09-30T05:52:36.472Z,9.10
2018-09-30T05:55:03.925Z,9.10
2018-09-30T05:57:31.445Z,9.10
2018-09-30T05:59:58.886Z,9.10
2018-09-30T06:02:26.301Z,9.20
2018-09-30T06:04:53.735Z,9.30
2018-09-30T06:07:21.249Z,9.40
2018-09-30T06:09:48.725Z,9.40
2018-09-30T06:12:16.196Z,9.30
2018-09-30T06:14:43.625Z,9.30
2018-09-30T06:17:11.104Z,9.30
2018-09-30T06:19:38.555Z,9.30
2018-09-30T06:22:06.019Z,9.40
2018-09-30T06:24:33.434Z,9.50
2018-09-30T06:27:00.876Z,9.50
2018-09-30T06:29:28.302Z,9.50
2018-09-30T06:31:55.791Z,9.50
2018-09-30T06:34:23.270Z,9.50
2018-09-30T06:36:50.833Z,9.50
2018-09-30T06:39:18.309Z,9.40
2018-09-30T06:41:45.741Z,9.40
2018-09-30T06:44:13.141Z,9.40
2018-09-30T06:46:40.580Z,9.50
2018-09-30T06:49:08.061Z,9.50
2018-09-30T06:51:35.513Z,9.50
2018-09-30T06:54:02.937Z,9.60
2018-09-30T06:56:30.405Z,9.60
2018-09-30T06:58:57.809Z,9.60
2018-09-30T07:01:25.253Z,9.60
2018-09-30T07:03:52.670Z,9.70
2018-09-30T07:06:20.172Z,9.70
2018-09-30T07:08:47.582Z,9.80
2018-09-30T07:11:15.054Z,9.80
2018-09-30T07:13:42.570Z,9.90
2018-09-30T07:16:09.952Z,9.90
2018-09-30T07:18:37.374Z,9.90
2018-09-30T07:21:04.893Z,10.00
2018-09-30T07:23:32.395Z,10.10
2018-09-30T07:25:59.891Z,10.00
2018-09-30T07:28:27.302Z,10.00
2018-09-30T07:30:54.804Z,9.90
2018-09-30T07:33:22.221Z,9.90
2018-09-30T07:35:49.643Z,9.90
2018-09-30T07:38:17.081Z,10.00
2018-09-30T07:40:44.522Z,10.10
2018-09-30T07:43:11.941Z,10.10
2018-09-30T07:45:39.451Z,10.10
2018-09-30T07:48:06.910Z,10.20
2018-09-30T07:50:34.340Z,10.20
2018-09-30T07:53:02.110Z,10.10
2018-09-30T07:55:29.554Z,10.00
2018-09-30T07:57:57.012Z,9.90
2018-09-30T08:00:24.441Z,9.90
2018-09-30T08:02:51.838Z,9.90
2018-09-30T08:05:19.278Z,9.90
2018-09-30T08:07:46.737Z,10.00
2018-09-30T08:10:14.145Z,10.00
2018-09-30T08:12:41.536Z,10.00
2018-09-30T08:15:09.030Z,10.00
2018-09-30T08:17:36.442Z,10.10
2018-09-30T08:20:03.923Z,10.20
2018-09-30T08:22:31.351Z,10.20
2018-09-30T08:24:58.754Z,10.30
2018-09-30T08:27:26.191Z,10.40
2018-09-30T08:29:53.636Z,10.40
2018-09-30T08:32:21.082Z,10.40
2018-09-30T08:34:48.532Z,10.50
2018-09-30T08:37:21.741Z,10.60
2018-09-30T08:39:49.198Z,10.60
2018-09-30T08:42:16.568Z,10.60
2018-09-30T08:44:44.272Z,10.60
2018-09-30T08:47:11.726Z,10.60
2018-09-30T08:49:39.245Z,10.70
2018-09-30T08:52:06.780Z,10.70
2018-09-30T08:54:34.186Z,10.70
2018-09-30T08:57:01.658Z,10.70
2018-09-30T08:59:29.056Z,10.60
2018-09-30T09:01:56.509Z,10.70
2018-09-30T09:04:23.965Z,10.70
2018-09-30T09:06:51.393Z,10.70
2018-09-30T09:09:18.838Z,10.80
2018-09-30T09:11:46.348Z,10.80
2018-09-30T09:14:13.794Z,10.80
2018-09-30T09:16:41.246Z,10.90
2018-09-30T09:19:08.680Z,11.00
2018-09-30T09:21:36.093Z,11.10
2018-09-30T09:24:03.593Z,11.10
2018-09-30T09:26:30.957Z,11.20
2018-09-30T09:28:58.382Z,11.20
2018-09-30T09:31:25.838Z,11.30
2018-09-30T09:33:53.238Z,11.30
2018-09-30T09:36:20.717Z,11.30
2018-09-30T09:38:48.167Z,11.30
2018-09-30T09:41:15.568Z,11.40
2018-09-30T09:43:43.250Z,11.40
2018-09-30T09:46:10.656Z,11.40
2018-09-30T09:48:38.069Z,11.40
2018-09-30T09:51:05.568Z,11.50
2018-09-30T09:53:33.037Z,11.50
2018-09-30T09:56:00.491Z,11.60
2018-09-30T09:58:27.901Z,11.80
2018-09-30T10:00:55.397Z,11.90
2018-09-30T10:03:22.860Z,12.00
2018-09-30T10:05:50.270Z,12.20
2018-09-30T10:08:17.722Z,12.40
2018-09-30T10:10:45.163Z,12.60
2018-09-30T10:13:12.686Z,12.70
2018-09-30T10:15:40.038Z,12.80
2018-09-30T10:18:07.449Z,12.70
2018-09-30T10:20:34.912Z,12.70
2018-09-30T10:23:02.329Z,12.70
2018-09-30T10:25:29.728Z,12.60
2018-09-30T10:27:57.149Z,12.60
2018-09-30T10:30:24.617Z,12.70
2018-09-30T10:32:52.018Z,12.70
2018-09-30T10:35:19.413Z,12.60
2018-09-30T10:37:46.873Z,12.50
2018-09-30T10:40:14.358Z,12.60
2018-09-30T10:42:41.766Z,12.50
2018-09-30T10:45:09.197Z,12.50
2018-09-30T10:47:36.614Z,12.60
2018-09-30T10:50:04.104Z,12.60
2018-09-30T10:52:31.501Z,12.50
2018-09-30T10:54:58.934Z,12.50
2018-09-30T10:57:26.409Z,12.50
2018-09-30T10:59:53.841Z,12.50
2018-09-30T11:02:21.243Z,12.40
2018-09-30T11:04:48.680Z,12.30
2018-09-30T11:07:16.094Z,12.40
2018-09-30T11:09:43.679Z,12.50
2018-09-30T11:12:11.020Z,12.50
2018-09-30T11:14:38.410Z,12.50
2018-09-30T11:17:06.177Z,12.50
2018-09-30T11:19:33.655Z,12.50
2018-09-30T11:22:01.056Z,12.40
2018-09-30T11:24:28.485Z,12.30
2018-09-30T11:26:55.884Z,12.30
2018-09-30T11:29:23.338Z,12.20
2018-09-30T11:31:50.771Z,12.10
2018-09-30T11:34:18.173Z,11.90
2018-09-30T11:36:45.612Z,11.70
2018-09-30T11:39:13.103Z,11.60
2018-09-30T11:41:41.560Z,11.40
2018-09-30T11:44:08.956Z,11.20
2018-09-30T11:46:36.536Z,11.10
2018-09-30T11:49:04.277Z,10.90
2018-09-30T11:51:31.677Z,10.80
2018-09-30T11:53:59.153Z,10.80
2018-09-30T11:56:26.560Z,10.80
2018-09-30T11:58:53.972Z,10.80
2018-09-30T12:01:21.457Z,10.90
2018-09-30T12:03:48.841Z,11.20
2018-09-30T12:06:16.373Z,11.50
2018-09-30T12:08:43.777Z,11.70
2018-09-30T12:11:11.225Z,11.80
2018-09-30T12:13:38.614Z,11.80
2018-09-30T12:16:06.454Z,11.80
2018-09-30T12:18:33.931Z,11.90
2018-09-30T12:21:01.449Z,12.10
2018-09-30T12:23:28.981Z,12.30
2018-09-30T12:25:56.369Z,12.60
2018-09-30T12:28:23.813Z,12.70
2018-09-30T12:30:51.220Z,12.80
2018-09-30T12:33:18.613Z,12.70
2018-09-30T12:35:46.084Z,12.50
2018-09-30T12:38:13.504Z,12.30
2018-09-30T12:40:41.029Z,12.10
2018-09-30T12:43:08.430Z,11.90
2018-09-30T12:45:35.846Z,11.80
2018-09-30T12:48:03.413Z,11.80
2018-09-30T12:50:30.822Z,11.90
2018-09-30T12:52:58.229Z,12.10
2018-09-30T12:55:25.645Z,12.20
2018-09-30T12:57:53.084Z,12.20
2018-09-30T13:00:20.557Z,12.10
2018-09-30T13:02:47.945Z,12.10
2018-09-30T13:05:15.375Z,12.10
2018-09-30T13:07:42.816Z,12.00
2018-09-30T13:10:10.253Z,12.10
2018-09-30T13:12:37.655Z,12.20
2018-09-30T13:15:05.153Z,12.20
2018-09-30T13:17:32.561Z,12.50
2018-09-30T13:20:00.017Z,12.70
2018-09-30T13:22:27.430Z,12.80
2018-09-30T13:24:54.836Z,12.80
2018-09-30T13:27:22.296Z,12.80
2018-09-30T13:29:49.757Z,12.80
2018-09-30T13:32:17.145Z,12.80
2018-09-30T13:34:44.565Z,12.80
2018-09-30T13:37:11.985Z,12.90
2018-09-30T13:39:39.434Z,12.90
2018-09-30T13:42:06.917Z,12.90
2018-09-30T13:44:34.342Z,13.00
2018-09-30T13:47:01.906Z,12.80
2018-09-30T13:49:29.361Z,12.70
2018-09-30T13:51:56.846Z,12.50
2018-09-30T13:54:24.319Z,12.40
2018-09-30T13:56:51.853Z,12.30
2018-09-30T13:59:19.356Z,12.20
2018-09-30T14:01:46.795Z,12.30
2018-09-30T14:04:14.223Z,12.20
2018-09-30T14:06:41.622Z,12.20
2018-09-30T14:09:09.901Z,12.20
2018-09-30T14:11:37.412Z,12.40
2018-09-30T14:14:04.852Z,12.30
2018-09-30T14:16:32.329Z,12.40
2018-09-30T14:18:59.757Z,12.50
2018-09-30T14:21:27.202Z,12.50
2018-09-30T14:23:54.609Z,12.40
2018-09-30T14:26:22.025Z,12.40
2018-09-30T14:28:49.509Z,12.50
2018-09-30T14:31:16.998Z,12.60
2018-09-30T14:33:44.747Z,12.50
2018-09-30T14:36:12.146Z,12.50
2018-09-30T14:38:39.585Z,12.50
2018-09-30T14:41:07.165Z,12.40
2018-09-30T14:43:34.565Z,12.40
2018-09-30T14:46:01.983Z,12.30
2018-09-30T14:48:29.483Z,12.30
2018-09-30T14:50:56.915Z,12.20
2018-09-30T14:53:24.317Z,12.20
2018-09-30T14:55:51.746Z,12.40
2018-09-30T14:58:26.111Z,12.40
2018-09-30T15:00:53.512Z,12.40
2018-09-30T15:03:20.929Z,12.40
2018-09-30T15:05:48.358Z,12.30
2018-09-30T15:08:16.309Z,12.30
2018-09-30T15:10:43.759Z,12.30
2018-09-30T15:13:11.165Z,12.30
2018-09-30T15:15:38.631Z,12.20
2018-09-30T15:18:06.058Z,12.20
2018-09-30T15:20:33.491Z,12.20
2018-09-30T15:23:01.841Z,12.10
2018-09-30T15:25:29.301Z,12.10
2018-09-30T15:27:56.696Z,12.00
2018-09-30T15:30:24.133Z,12.00
2018-09-30T15:32:51.564Z,12.00
2018-09-30T15:35:18.978Z,11.90
2018-09-30T15:37:46.389Z,11.90
2018-09-30T15:40:13.850Z,11.80
2018-09-30T15:42:41.264Z,11.90
2018-09-30T15:45:08.743Z,11.80
2018-09-30T15:47:36.226Z,11.80
2018-09-30T15:50:03.712Z,11.60
2018-09-30T15:52:31.169Z,11.60
2018-09-30T15:54:58.593Z,11.50
2018-09-30T15:57:26.058Z,11.40
2018-09-30T15:59:53.465Z,11.20
2018-09-30T16:02:20.924Z,11.10
2018-09-30T16:04:48.321Z,11.00
2018-09-30T16:07:15.796Z,10.90
2018-09-30T16:09:43.293Z,10.80
2018-09-30T16:12:10.725Z,10.60
2018-09-30T16:14:38.266Z,10.50
2018-09-30T16:17:05.750Z,10.50
2018-09-30T16:19:33.170Z,10.40
2018-09-30T16:22:00.676Z,10.40
2018-09-30T16:24:28.142Z,10.40
2018-09-30T16:26:55.574Z,10.30
2018-09-30T16:29:22.989Z,10.30
2018-09-30T16:31:50.669Z,10.20
2018-09-30T16:34:18.116Z,10.20
2018-09-30T16:36:45.521Z,10.10
2018-09-30T16:39:12.958Z,10.10
2018-09-30T16:41:40.418Z,10.00
2018-09-30T16:44:07.808Z,10.00
2018-09-30T16:46:35.225Z,10.00
2018-09-30T16:49:02.654Z,10.00
2018-09-30T16:51:30.084Z,9.90
2018-09-30T16:53:57.542Z,9.80
2018-09-30T16:56:25.203Z,9.80
2018-09-30T16:58:52.656Z,9.70
2018-09-30T17:01:20.098Z,9.60
2018-09-30T17:03:47.667Z,9.50
2018-09-30T17:06:15.178Z,9.30
2018-09-30T17:08:42.572Z,9.30
2018-09-30T17:11:09.990Z,9.30
2018-09-30T17:13:37.428Z,9.20
2018-09-30T17:16:04.873Z,9.10
2018-09-30T17:18:32.381Z,8.90
2018-09-30T17:20:59.774Z,8.70
2018-09-30T17:23:27.217Z,8.50
2018-09-30T17:25:54.630Z,8.40
2018-09-30T17:28:22.133Z,8.20
2018-09-30T17:30:49.625Z,8.10
2018-09-30T17:33:17.143Z,8.00
2018-09-30T17:35:44.569Z,8.00
2018-09-30T17:38:12.402Z,8.00
2018-09-30T17:40:40.274Z,8.00
2018-09-30T17:43:08.193Z,8.00
2018-09-30T17:45:36.112Z,7.90
2018-09-30T17:48:03.835Z,7.80
2018-09-30T17:50:31.445Z,7.70
2018-09-30T17:52:59.194Z,7.60
2018-09-30T17:55:26.882Z,7.50
2018-09-30T17:57:54.409Z,7.50
2018-09-30T18:00:22.010Z,7.50
2018-09-30T18:02:49.608Z,7.40
2018-09-30T18:05:17.127Z,7.40
2018-09-30T18:07:44.648Z,7.40
2018-09-30T18:10:12.199Z,7.40
2018-09-30T18:12:39.676Z,7.50
2018-09-30T18:15:07.251Z,7.50
2018-09-30T18:17:34.750Z,7.50
2018-09-30T18:20:02.241Z,7.50
2018-09-30T18:22:29.753Z,7.50
2018-09-30T18:24:57.265Z,7.40
2018-09-30T18:27:24.763Z,7.40
2018-09-30T18:29:52.289Z,7.30
2018-09-30T18:32:19.773Z,7.30
2018-09-30T18:34:47.616Z,7.20
2018-09-30T18:37:15.077Z,7.20
2018-09-30T18:39:42.613Z,7.10
2018-09-30T18:42:10.100Z,7.00
2018-09-30T18:44:37.660Z,7.00
2018-09-30T18:47:05.279Z,7.00
2018-09-30T18:49:32.748Z,7.00
2018-09-30T18:52:00.224Z,6.90
2018-09-30T18:54:27.760Z,6.80
2018-09-30T18:56:55.182Z,6.70
2018-09-30T18:59:22.765Z,6.60
2018-09-30T19:01:50.184Z,6.50
2018-09-30T19:04:17.640Z,6.60
2018-09-30T19:06:45.085Z,6.40
2018-09-30T19:09:12.502Z,6.30
2018-09-30T19:11:39.975Z,6.10
2018-09-30T19:14:07.443Z,6.10
2018-09-30T19:16:34.987Z,6.10
2018-09-30T19:19:02.507Z,6.20
2018-09-30T19:21:29.844Z,6.30
2018-09-30T19:23:57.545Z,6.30
2018-09-30T19:26:24.997Z,6.40
2018-09-30T19:28:52.384Z,6.50
2018-09-30T19:31:19.877Z,6.60
2018-09-30T19:33:47.326Z,6.70
2018-09-30T19:36:14.849Z,6.80
2018-09-30T19:38:42.314Z,6.90
2018-09-30T19:41:09.900Z,7.00
2018-09-30T19:43:37.669Z,7.10
2018-09-30T19:46:05.246Z,7.20
2018-09-30T19:48:32.675Z,7.20
2018-09-30T19:51:00.110Z,7.20
2018-09-30T19:53:27.540Z,7.30
2018-09-30T19:55:54.973Z,7.30
2018-09-30T19:58:29.576Z,7.40
2018-09-30T20:00:57.004Z,7.40
2018-09-30T20:03:24.393Z,7.50
2018-09-30T20:05:51.832Z,7.50
2018-09-30T20:08:19.242Z,7.50
2018-09-30T20:10:46.704Z,7.60
2018-09-30T20:13:14.110Z,7.70
2018-09-30T20:15:41.508Z,7.70
2018-09-30T20:18:08.914Z,7.80
2018-09-30T20:20:36.355Z,7.80
2018-09-30T20:23:03.808Z,7.80
2018-09-30T20:25:31.222Z,7.80
2018-09-30T20:27:58.673Z,7.80
2018-09-30T20:30:26.109Z,7.80
2018-09-30T20:32:53.624Z,7.90
2018-09-30T20:35:21.117Z,7.90
2018-09-30T20:37:48.502Z,7.90
2018-09-30T20:40:15.930Z,7.90
2018-09-30T20:42:43.388Z,7.90
2018-09-30T20:45:10.797Z,8.00
2018-09-30T20:47:38.193Z,8.00
2018-09-30T20:50:05.878Z,8.00
2018-09-30T20:52:33.311Z,8.10
2018-09-30T20:55:00.764Z,8.10
2018-09-30T20:57:28.171Z,8.10
2018-09-30T20:59:55.638Z,8.10
2018-09-30T21:02:23.182Z,8.10
2018-09-30T21:04:50.606Z,8.10
2018-09-30T21:07:18.055Z,8.10
2018-09-30T21:09:45.438Z,8.10
2018-09-30T21:12:12.830Z,8.00
2018-09-30T21:14:40.239Z,8.00
2018-09-30T21:17:07.677Z,8.00
2018-09-30T21:19:35.152Z,8.00
2018-09-30T21:22:02.574Z,8.00
2018-09-30T21:24:29.988Z,8.00
2018-09-30T21:26:57.497Z,8.00
2018-09-30T21:29:24.890Z,8.00
2018-09-30T21:31:52.354Z,8.00
2018-09-30T21:34:19.876Z,8.00
2018-09-30T21:36:47.266Z,8.00
2018-09-30T21:39:14.681Z,8.10
2018-09-30T21:41:42.205Z,8.10
2018-09-30T21:44:09.611Z,8.10
2018-09-30T21:46:37.354Z,8.20
2018-09-30T21:49:04.896Z,8.30
2018-09-30T21:51:32.274Z,8.30
2018-09-30T21:53:59.692Z,8.50
2018-09-30T21:56:27.154Z,8.50
2018-09-30T21:58:54.706Z,8.50
2018-09-30T22:01:22.138Z,8.60
2018-09-30T22:03:49.557Z,8.60
2018-09-30T22:06:16.992Z,8.60
2018-09-30T22:08:44.428Z,8.60
2018-09-30T22:11:11.850Z,8.60
2018-09-30T22:13:39.322Z,8.70
2018-09-30T22:16:06.785Z,8.60
2018-09-30T22:18:34.241Z,8.40
2018-09-30T22:21:01.661Z,8.40
2018-09-30T22:23:29.116Z,8.20
2018-09-30T22:25:56.609Z,8.20
2018-09-30T22:28:24.007Z,8.10
2018-09-30T22:30:51.448Z,8.20
2018-09-30T22:33:18.901Z,8.20
2018-09-30T22:35:46.297Z,8.10
2018-09-30T22:38:13.737Z,7.90
2018-09-30T22:40:41.168Z,7.70
2018-09-30T22:43:08.606Z,7.70
2018-09-30T22:45:36.020Z,7.60
2018-09-30T22:48:03.449Z,7.50
2018-09-30T22:50:30.921Z,7.40
2018-09-30T22:52:58.377Z,7.30
2018-09-30T22:55:25.815Z,7.20
2018-09-30T22:57:53.368Z,7.20
2018-09-30T23:00:20.824Z,7.30
2018-09-30T23:02:48.233Z,7.30
2018-09-30T23:05:15.809Z,7.30
2018-09-30T23:07:43.233Z,7.20
2018-09-30T23:10:11.963Z,7.20
2018-09-30T23:12:39.562Z,7.10
2018-09-30T23:15:07.035Z,7.10
2018-09-30T23:17:34.501Z,7.10
2018-09-30T23:20:02.064Z,7.10
2018-09-30T23:22:29.490Z,7.00
2018-09-30T23:24:56.964Z,7.00
2018-09-30T23:27:24.413Z,7.00
2018-09-30T23:29:51.805Z,7.00
2018-09-30T23:32:19.257Z,6.90
2018-09-30T23:34:46.769Z,6.80
2018-09-30T23:37:14.217Z,6.70
2018-09-30T23:39:41.614Z,6.70
2018-09-30T23:42:09.094Z,6.50
2018-09-30T23:44:36.547Z,6.40
2018-09-30T23:47:03.987Z,6.40
2018-09-30T23:49:31.445Z,6.30
2018-09-30T23:51:58.891Z,6.30
2018-09-30T23:54:26.383Z,6.30
2018-09-30T23:56:53.783Z,6.20
2018-09-30T23:59:21.214Z,6.20
